Time;durP1;ratioP1;P1;durP2;ratioP2;P2;SDS_P1;SDS_P2;PMS_P1;PMS_P2;Temp;Humidity;BMP_temperature;BMP_pressure;BME280_temperature;BME280_humidity;BME280_pressure;Samples;Min_cycle;Max_cycle;Signal;HPM_P1;HPM_P2
2021/12/28 00:00:53;;;;;;;2.33;1.43;;;;;;;7.04;100.00;153169.16;4995142;28;20838;-75
2021/12/28 00:03:30;;;;;;;4.23;1.50;;;;;;;7.02;100.00;153162.69;4995066;28;20445;-75
2021/12/28 00:06:06;;;;;;;2.90;1.40;;;;;;;6.96;100.00;153148.53;5010616;28;20414;-75
2021/12/28 00:08:42;;;;;;;3.00;1.40;;;;;;;7.02;100.00;153164.00;5017423;28;20461;-75
2021/12/28 00:11:18;;;;;;;2.13;0.83;;;;;;;7.00;100.00;153157.53;5008128;28;20469;-75
2021/12/28 00:13:59;;;;;;;5.17;1.70;;;;;;;6.95;100.00;153144.63;5027836;28;20449;-75
2021/12/28 00:17:58;;;;;;;4.57;1.43;;;;;;;6.98;100.00;153153.69;5027231;28;20450;-75
2021/12/28 00:19:32;;;;;;;1.87;0.93;;;;;;;6.97;100.00;153151.09;4979615;28;20532;-75
2021/12/28 00:22:08;;;;;;;2.27;1.20;;;;;;;6.93;100.00;153140.78;5010897;28;20848;-75
2021/12/28 00:24:43;;;;;;;3.03;1.30;;;;;;;6.90;100.00;153133.03;5011026;28;20441;-75
2021/12/28 00:27:19;;;;;;;2.67;1.40;;;;;;;6.89;100.00;153130.44;4993114;28;20461;-75
2021/12/28 00:29:55;;;;;;;2.60;1.00;;;;;;;6.87;100.00;153125.28;5010732;28;20556;-75
2021/12/28 00:32:31;;;;;;;2.60;1.30;;;;;;;6.84;100.00;153117.53;5010082;28;20547;-75
2021/12/28 00:35:09;;;;;;;2.30;1.47;;;;;;;6.89;100.00;153129.13;5027248;28;21063;-75
2021/12/28 00:37:45;;;;;;;4.37;1.63;;;;;;;6.84;100.00;153117.53;5010538;28;20936;-75
2021/12/28 00:40:20;;;;;;;2.10;0.90;;;;;;;6.78;100.00;153102.03;5027213;28;20433;-75
2021/12/28 00:42:56;;;;;;;1.90;1.37;;;;;;;6.78;100.00;153102.03;4994069;28;20441;-75
2021/12/28 00:45:32;;;;;;;3.13;2.00;;;;;;;6.73;100.00;153090.41;4993865;28;20437;-75
2021/12/28 00:48:07;;;;;;;3.67;1.80;;;;;;;6.77;100.00;153099.47;4980820;28;20474;-75
2021/12/28 00:50:45;;;;;;;4.20;1.43;;;;;;;6.77;100.00;153098.19;5010476;28;20467;-75
2021/12/28 00:53:21;;;;;;;5.67;1.73;;;;;;;6.77;100.00;153099.47;4994157;28;20445;-75
2021/12/28 00:55:57;;;;;;;4.27;1.40;;;;;;;6.82;100.00;153112.38;4991504;28;20453;-75
2021/12/28 00:58:33;;;;;;;6.53;2.10;;;;;;;6.75;100.00;153094.31;5010376;28;20477;-75
2021/12/28 01:01:09;;;;;;;4.10;1.43;;;;;;;6.71;100.00;153083.97;4993660;28;20956;-75
2021/12/28 01:03:44;;;;;;;2.33;1.40;;;;;;;6.70;100.00;153081.38;4993793;28;20457;-75
2021/12/28 01:06:21;;;;;;;3.63;1.30;;;;;;;6.71;100.00;153083.97;4993236;28;20433;-75
2021/12/28 01:08:56;;;;;;;4.97;1.50;;;;;;;6.71;100.00;153083.97;5007717;28;20454;-75
2021/12/28 01:11:32;;;;;;;2.03;1.20;;;;;;;6.68;100.00;153077.50;5008574;28;20477;-76
2021/12/28 01:14:08;;;;;;;3.00;1.97;;;;;;;6.67;100.00;153073.66;4994257;28;20463;-75
2021/12/28 01:16:43;;;;;;;5.23;1.40;;;;;;;6.73;100.00;153089.13;4992731;28;20449;-75
2021/12/28 01:19:20;;;;;;;3.00;1.57;;;;;;;6.72;100.00;153086.56;5009898;28;20476;-75
2021/12/28 01:21:57;;;;;;;4.27;1.57;;;;;;;6.78;100.00;153100.78;4978390;28;20467;-75
2021/12/28 01:24:34;;;;;;;1.83;1.20;;;;;;;6.98;100.00;153153.69;5009635;28;20445;-75
2021/12/28 01:27:09;;;;;;;2.80;1.50;;;;;;;6.86;100.00;153122.69;5009604;28;20453;-75
2021/12/28 01:29:45;;;;;;;3.50;2.03;;;;;;;6.83;100.00;153114.94;4993322;28;20445;-75
2021/12/28 01:32:20;;;;;;;3.13;1.67;;;;;;;6.73;100.00;153089.13;5009629;28;20449;-75
2021/12/28 01:34:56;;;;;;;2.83;1.47;;;;;;;6.67;100.00;153073.66;4994319;28;20418;-75
2021/12/28 01:37:33;;;;;;;4.03;1.50;;;;;;;6.71;100.00;153083.97;5009359;28;20465;-75
2021/12/28 01:40:11;;;;;;;3.60;2.10;;;;;;;6.66;100.00;153071.06;5009349;28;20453;-75
2021/12/28 01:42:59;;;;;;;1.83;1.40;;;;;;;6.59;100.00;153054.28;5009464;28;20450;-75
2021/12/28 01:45:39;;;;;;;5.83;1.50;;;;;;;6.60;100.00;153056.88;4993051;28;20429;-75
2021/12/28 01:48:17;;;;;;;2.63;1.40;;;;;;;6.58;100.00;153050.41;4993903;28;20572;-75
2021/12/28 01:50:55;;;;;;;2.40;1.57;;;;;;;6.55;100.00;153042.66;5009301;28;20802;-75
2021/12/28 01:53:32;;;;;;;4.73;1.70;;;;;;;6.47;100.00;153022.00;4992871;28;20445;-75
2021/12/28 01:56:10;;;;;;;1.90;1.53;;;;;;;6.48;100.00;153024.63;5009149;28;20476;-75
2021/12/28 01:58:46;;;;;;;2.93;1.30;;;;;;;6.47;100.00;153023.31;5002804;28;20992;-75
2021/12/28 02:01:22;;;;;;;2.10;1.47;;;;;;;6.45;100.00;153018.16;5014426;28;20413;-75
2021/12/28 02:03:57;;;;;;;4.87;1.83;;;;;;;6.45;100.00;153018.16;5013609;28;20500;-75
2021/12/28 02:06:33;;;;;;;4.57;1.57;;;;;;;6.46;100.00;153020.72;5011979;28;20567;-75
2021/12/28 02:09:10;;;;;;;2.73;1.60;;;;;;;6.49;100.00;153028.47;5008147;28;20469;-75
2021/12/28 02:11:45;;;;;;;2.00;1.63;;;;;;;6.49;100.00;153027.16;4991204;28;20473;-75
2021/12/28 02:14:22;;;;;;;4.93;1.60;;;;;;;6.47;100.00;153022.00;5007595;28;20445;-75
2021/12/28 02:16:57;;;;;;;4.57;2.00;;;;;;;6.45;100.00;153018.16;4993500;28;20816;-75
2021/12/28 02:19:33;;;;;;;3.70;1.67;;;;;;;6.53;100.00;153037.50;5008804;28;20495;-75
2021/12/28 02:22:10;;;;;;;6.60;1.83;;;;;;;6.60;100.00;153055.56;5008775;28;20453;-75
2021/12/28 02:24:45;;;;;;;3.00;2.03;;;;;;;6.48;100.00;153024.63;4977173;28;20466;-75
2021/12/28 02:27:21;;;;;;;3.57;1.70;;;;;;;6.46;100.00;153019.47;5008434;28;20449;-75
2021/12/28 02:29:57;;;;;;;2.90;1.87;;;;;;;6.41;100.00;153006.53;4977092;28;20947;-75
2021/12/28 02:32:33;;;;;;;4.60;1.70;;;;;;;6.36;100.00;152993.63;4992321;28;20932;-75
2021/12/28 02:35:11;;;;;;;4.20;1.93;;;;;;;6.38;100.00;152998.81;4993543;28;20426;-75
2021/12/28 02:37:49;;;;;;;5.00;2.10;;;;;;;6.41;100.00;153006.53;4992065;28;20473;-75
2021/12/28 02:40:28;;;;;;;3.60;2.00;;;;;;;6.46;100.00;153019.47;4993353;28;20414;-75
2021/12/28 02:43:05;;;;;;;6.53;1.90;;;;;;;6.41;100.00;153006.53;4988067;28;20445;-75
2021/12/28 02:45:47;;;;;;;3.13;2.37;;;;;;;6.46;100.00;153019.47;4973098;28;20536;-75
2021/12/28 02:48:23;;;;;;;4.50;1.90;;;;;;;6.47;100.00;153022.00;4975684;28;20470;-75
2021/12/28 02:51:01;;;;;;;6.97;2.20;;;;;;;6.44;100.00;153015.56;4991694;28;20461;-75
2021/12/28 02:53:38;;;;;;;3.23;1.90;;;;;;;6.52;100.00;153034.91;5008453;28;20449;-75
2021/12/28 02:56:15;;;;;;;4.47;2.10;;;;;;;6.42;100.00;153009.13;5007745;28;20464;-75
2021/12/28 02:58:52;;;;;;;9.13;2.30;;;;;;;6.51;100.00;153033.63;4991769;28;20437;-75
2021/12/28 03:01:30;;;;;;;8.17;2.03;;;;;;;6.49;100.00;153027.16;5001419;28;20473;-75
2021/12/28 03:04:07;;;;;;;8.40;2.70;;;;;;;6.51;100.00;153033.63;5023283;28;20441;-75
2021/12/28 03:06:43;;;;;;;4.77;2.10;;;;;;;6.58;100.00;153050.41;4991807;28;20449;-75
2021/12/28 03:09:21;;;;;;;4.07;1.77;;;;;;;6.48;100.00;153024.63;4990903;28;20540;-75
2021/12/28 03:11:56;;;;;;;3.80;1.87;;;;;;;6.45;100.00;153016.88;4991849;28;20983;-75
2021/12/28 03:14:32;;;;;;;3.53;1.27;;;;;;;6.46;100.00;153019.47;5008280;28;20429;-75
2021/12/28 03:17:08;;;;;;;5.10;2.50;;;;;;;6.49;100.00;153027.16;5006572;28;20547;-75
2021/12/28 03:19:43;;;;;;;4.67;2.00;;;;;;;6.46;100.00;153020.72;4991106;28;20920;-75
2021/12/28 03:22:19;;;;;;;2.57;1.57;;;;;;;6.45;100.00;153016.88;4991298;28;20433;-75
2021/12/28 03:24:56;;;;;;;4.40;2.80;;;;;;;6.51;100.00;153032.38;5008475;28;20437;-75
2021/12/28 03:27:31;;;;;;;5.50;2.33;;;;;;;6.50;100.00;153029.75;4990509;28;20477;-75
2021/12/28 03:30:10;;;;;;;6.23;1.77;;;;;;;6.45;100.00;153016.88;5007755;28;20520;-75
2021/12/28 03:32:46;;;;;;;3.20;2.07;;;;;;;6.42;100.00;153010.41;5007763;28;20532;-75
2021/12/28 03:35:21;;;;;;;4.20;2.37;;;;;;;6.45;100.00;153016.88;4991436;28;20776;-75
2021/12/28 03:37:57;;;;;;;4.83;2.63;;;;;;;6.40;100.00;153003.97;5024173;28;20449;-75
2021/12/28 03:40:34;;;;;;;5.50;2.10;;;;;;;6.48;100.00;153024.63;4975727;28;20528;-75
2021/12/28 03:43:10;;;;;;;4.60;2.63;;;;;;;6.58;100.00;153050.41;4988262;28;21020;-75
2021/12/28 03:45:48;;;;;;;3.20;1.80;;;;;;;6.50;100.00;153029.75;4987862;28;20438;-75
2021/12/28 03:48:23;;;;;;;3.50;1.60;;;;;;;6.45;100.00;153016.88;4973696;28;20568;-75
2021/12/28 03:51:00;;;;;;;3.40;1.90;;;;;;;6.39;100.00;153001.38;4991146;28;20886;-75
2021/12/28 03:53:36;;;;;;;3.10;1.80;;;;;;;6.35;100.00;152991.06;5007671;28;20543;-75
2021/12/28 03:56:13;;;;;;;6.20;1.83;;;;;;;6.41;100.00;153006.53;4987637;28;20442;-75
2021/12/28 03:58:49;;;;;;;3.33;2.27;;;;;;;6.38;100.00;152998.81;4971855;28;20430;-75
2021/12/28 04:01:26;;;;;;;7.07;2.20;;;;;;;6.40;100.00;153005.28;4971461;28;20563;-75
2021/12/28 04:04:01;;;;;;;4.33;2.00;;;;;;;6.49;100.00;153027.16;4974969;28;20544;-75
2021/12/28 04:06:37;;;;;;;4.67;2.13;;;;;;;6.47;100.00;153022.00;4990908;28;20453;-75
2021/12/28 04:09:20;;;;;;;2.70;1.73;;;;;;;6.47;100.00;153022.00;4991301;28;20796;-75
2021/12/28 04:11:56;;;;;;;5.00;1.70;;;;;;;6.56;100.00;153045.25;5007585;28;21087;-75
2021/12/28 04:14:32;;;;;;;5.00;2.07;;;;;;;6.58;100.00;153051.72;5008550;28;20862;-75
2021/12/28 04:17:07;;;;;;;3.17;1.60;;;;;;;6.52;100.00;153034.91;5007090;28;20441;-75
2021/12/28 04:19:43;;;;;;;5.90;1.83;;;;;;;6.53;100.00;153037.50;4990914;28;20449;-75
2021/12/28 04:22:19;;;;;;;4.30;1.90;;;;;;;6.67;100.00;153074.91;5007259;28;20456;-75
2021/12/28 04:24:55;;;;;;;5.00;2.17;;;;;;;6.60;100.00;153055.56;5006310;28;20449;-75
2021/12/28 04:27:32;;;;;;;5.30;2.97;;;;;;;6.60;100.00;153055.56;5007165;28;20457;-75
2021/12/28 04:30:09;;;;;;;6.27;4.70;;;;;;;6.65;100.00;153068.47;5007696;28;20438;-75
2021/12/28 04:32:45;;;;;;;8.10;4.30;;;;;;;6.60;100.00;153055.56;5006995;28;20472;-75
2021/12/28 04:35:20;;;;;;;5.43;3.83;;;;;;;6.65;100.00;153068.47;4977081;28;20437;-76
2021/12/28 04:37:56;;;;;;;6.20;2.83;;;;;;;6.66;100.00;153071.06;4993746;28;20805;-75
2021/12/28 04:40:32;;;;;;;5.27;3.10;;;;;;;6.80;100.00;153105.91;4995387;28;20422;-76
2021/12/28 04:43:11;;;;;;;3.77;2.63;;;;;;;6.70;100.00;153081.38;4974512;28;20544;-76
2021/12/28 04:45:46;;;;;;;4.43;3.50;;;;;;;6.81;100.00;153109.78;4993189;28;20473;-76
2021/12/28 04:48:22;;;;;;;5.57;4.97;;;;;;;6.75;100.00;153095.56;5008106;28;20476;-76
2021/12/28 04:50:57;;;;;;;8.33;4.47;;;;;;;6.72;100.00;153086.56;4976007;28;20774;-76
2021/12/28 04:53:33;;;;;;;6.53;4.67;;;;;;;6.73;100.00;153089.13;4974862;28;20548;-76
2021/12/28 04:56:08;;;;;;;6.73;4.33;;;;;;;6.73;100.00;153089.13;4974332;28;20438;-77
2021/12/28 04:58:46;;;;;;;3.30;2.30;;;;;;;6.79;100.00;153103.31;5008506;28;20441;-77
2021/12/28 05:01:21;;;;;;;3.73;2.50;;;;;;;6.72;100.00;153086.56;4993781;28;20437;-76
2021/12/28 05:03:57;;;;;;;4.10;2.00;;;;;;;6.84;100.00;153117.53;5010368;28;20445;-76
2021/12/28 05:06:34;;;;;;;4.07;1.77;;;;;;;6.74;100.00;153093.03;5009789;28;20437;-76
2021/12/28 05:09:12;;;;;;;3.70;2.30;;;;;;;6.79;100.00;153104.63;5009182;28;20962;-75
2021/12/28 05:11:48;;;;;;;5.50;2.23;;;;;;;6.75;100.00;153094.31;4998178;28;20560;-77
2021/12/28 05:14:25;;;;;;;3.30;2.37;;;;;;;6.79;100.00;153103.31;5009177;28;20780;-78
2021/12/28 05:17:01;;;;;;;2.33;1.90;;;;;;;6.75;100.00;153094.31;4993367;28;20920;-76
2021/12/28 05:19:37;;;;;;;4.37;1.90;;;;;;;6.70;100.00;153081.38;4993192;28;20503;-76
2021/12/28 05:22:13;;;;;;;2.73;1.93;;;;;;;6.69;100.00;153078.81;4978187;28;20441;-76
2021/12/28 05:24:49;;;;;;;3.07;1.70;;;;;;;6.69;100.00;153080.13;5009929;28;20835;-76
2021/12/28 05:27:24;;;;;;;2.63;2.23;;;;;;;6.71;100.00;153083.97;5009029;28;20445;-77
2021/12/28 05:30:02;;;;;;;2.33;2.07;;;;;;;6.69;100.00;153078.81;4978714;28;20456;-77
2021/12/28 05:32:37;;;;;;;2.87;2.57;;;;;;;6.79;100.00;153104.63;4993032;28;20811;-77
2021/12/28 05:35:13;;;;;;;7.20;2.83;;;;;;;6.72;100.00;153087.81;5009439;28;20461;-77
2021/12/28 05:37:49;;;;;;;4.17;2.50;;;;;;;6.75;100.00;153095.56;5009197;28;20437;-77
2021/12/28 05:40:25;;;;;;;2.97;1.70;;;;;;;6.73;100.00;153089.13;5026017;28;20794;-77
2021/12/28 05:43:00;;;;;;;2.60;2.30;;;;;;;6.70;100.00;153081.38;4992759;28;20441;-77
2021/12/28 05:45:37;;;;;;;3.33;2.30;;;;;;;6.72;100.00;153087.81;4973526;28;20450;-77
2021/12/28 05:48:13;;;;;;;4.93;2.10;;;;;;;6.72;100.00;153086.56;4987643;28;20470;-77
2021/12/28 05:50:49;;;;;;;2.77;2.27;;;;;;;6.72;100.00;153087.81;4984539;28;20437;-77
2021/12/28 05:53:24;;;;;;;2.47;2.00;;;;;;;6.76;100.00;153096.88;5008554;28;20456;-77
2021/12/28 05:56:00;;;;;;;5.23;2.27;;;;;;;6.84;100.00;153117.53;4977501;28;20445;-77
2021/12/28 05:58:35;;;;;;;3.07;2.00;;;;;;;6.85;100.00;153120.13;4977693;28;20845;-77
2021/12/28 06:01:12;;;;;;;3.50;2.07;;;;;;;6.86;100.00;153121.44;4978098;28;20453;-77
2021/12/28 06:03:48;;;;;;;4.40;1.80;;;;;;;6.80;100.00;153107.22;5007958;28;20865;-77
2021/12/28 06:06:24;;;;;;;6.10;2.17;;;;;;;6.85;100.00;153120.13;5004998;28;20446;-77
2021/12/28 06:09:03;;;;;;;5.33;2.17;;;;;;;6.82;100.00;153112.38;4991829;28;20449;-77
2021/12/28 06:11:39;;;;;;;2.63;2.27;;;;;;;6.82;100.00;153112.38;5007659;28;20469;-77
2021/12/28 06:14:14;;;;;;;2.53;2.30;;;;;;;6.88;100.00;153127.88;4993722;28;20437;-77
2021/12/28 06:16:51;;;;;;;3.07;2.30;;;;;;;6.89;100.00;153130.44;4988896;28;20580;-77
2021/12/28 06:19:27;;;;;;;3.07;2.00;;;;;;;6.88;100.00;153127.88;4991067;28;20521;-77
2021/12/28 06:22:04;;;;;;;3.73;2.23;;;;;;;6.89;100.00;153130.44;5013276;28;20784;-77
2021/12/28 06:24:40;;;;;;;5.70;2.90;;;;;;;6.93;100.00;153140.78;5013235;28;20810;-77
2021/12/28 06:27:16;;;;;;;3.87;3.10;;;;;;;6.96;100.00;153148.53;4995864;28;20464;-77
2021/12/28 06:29:51;;;;;;;4.23;2.83;;;;;;;6.97;100.00;153149.78;4991434;28;20496;-77
2021/12/28 06:32:29;;;;;;;3.10;2.40;;;;;;;7.02;100.00;153164.00;4974707;28;21011;-77
2021/12/28 06:35:06;;;;;;;5.30;2.43;;;;;;;6.99;100.00;153156.25;4987512;28;20536;-77
2021/12/28 06:37:43;;;;;;;4.33;2.03;;;;;;;7.00;100.00;153157.53;5008294;28;20449;-77
2021/12/28 06:40:19;;;;;;;2.10;1.80;;;;;;;7.00;100.00;153158.84;4992003;28;20553;-77
2021/12/28 06:42:54;;;;;;;3.50;2.10;;;;;;;7.00;100.00;153158.84;4990925;28;20453;-77
2021/12/28 06:45:30;;;;;;;2.03;1.83;;;;;;;7.00;100.00;153158.84;5004816;28;20442;-77
2021/12/28 06:48:07;;;;;;;2.67;1.80;;;;;;;7.00;100.00;153158.84;4988218;28;20981;-78
2021/12/28 06:50:43;;;;;;;1.50;1.40;;;;;;;7.01;100.00;153161.44;4988665;28;20532;-77
2021/12/28 06:53:19;;;;;;;2.17;1.20;;;;;;;7.06;100.00;153173.03;4978956;28;20474;-77
2021/12/28 06:55:54;;;;;;;1.40;1.03;;;;;;;7.05;100.00;153171.75;5007749;28;20473;-77
2021/12/28 06:58:30;;;;;;;2.20;1.20;;;;;;;7.01;100.00;153161.44;4991734;28;20781;-77
2021/12/28 07:01:06;;;;;;;3.70;1.70;;;;;;;7.01;100.00;153161.44;4991122;28;20887;-77
2021/12/28 07:03:43;;;;;;;2.23;0.80;;;;;;;7.03;100.00;153166.59;4991109;28;20524;-77
2021/12/28 07:06:18;;;;;;;1.43;1.10;;;;;;;7.03;100.00;153165.28;5008721;28;20426;-77
2021/12/28 07:08:54;;;;;;;6.40;1.33;;;;;;;7.03;100.00;153165.28;5007483;28;20488;-77
2021/12/28 07:11:29;;;;;;;1.50;1.10;;;;;;;7.04;100.00;153167.91;5007325;28;20445;-77
2021/12/28 07:14:05;;;;;;;1.37;0.80;;;;;;;7.04;100.00;153167.91;5007683;28;20429;-77
2021/12/28 07:16:41;;;;;;;1.43;1.07;;;;;;;7.04;100.00;153167.91;4991010;28;20449;-77
2021/12/28 07:19:18;;;;;;;1.23;0.70;;;;;;;7.02;100.00;153164.00;4991189;28;20433;-77
2021/12/28 07:21:53;;;;;;;1.00;0.70;;;;;;;7.05;100.00;153170.44;4992253;28;20434;-77
2021/12/28 07:24:29;;;;;;;1.00;0.70;;;;;;;7.07;100.00;153176.91;4991222;28;20409;-77
2021/12/28 07:27:05;;;;;;;2.37;0.80;;;;;;;7.11;100.00;153187.25;4999916;28;20454;-77
2021/12/28 07:29:41;;;;;;;1.77;0.80;;;;;;;7.13;100.00;153191.09;4970924;28;20462;-77
2021/12/28 07:32:16;;;;;;;1.00;0.80;;;;;;;7.14;100.00;153195.00;4988162;28;20505;-77
2021/12/28 07:34:53;;;;;;;1.00;0.70;;;;;;;7.19;100.00;153206.63;4999530;28;20536;-77
2021/12/28 07:37:28;;;;;;;1.30;0.90;;;;;;;7.24;100.00;153220.81;4989831;28;20445;-77
2021/12/28 07:40:05;;;;;;;1.20;0.80;;;;;;;7.29;100.00;153232.44;5024073;28;20468;-77
2021/12/28 07:42:41;;;;;;;1.37;0.93;;;;;;;7.27;100.00;153228.56;4990978;28;20485;-77
2021/12/28 07:45:17;;;;;;;1.00;0.60;;;;;;;7.30;100.00;153236.34;4990810;28;20425;-77
2021/12/28 07:47:53;;;;;;;1.10;0.70;;;;;;;7.40;100.00;153259.53;5007332;28;20489;-77
2021/12/28 07:50:29;;;;;;;0.93;0.70;;;;;;;7.44;100.00;153269.91;4984347;28;20446;-77
2021/12/28 07:53:05;;;;;;;0.97;0.60;;;;;;;7.48;100.00;153280.22;4976164;28;20508;-77
2021/12/28 07:55:40;;;;;;;0.90;0.57;;;;;;;7.49;100.00;153284.13;5023404;28;20457;-77
2021/12/28 07:58:16;;;;;;;1.57;0.80;;;;;;;7.58;100.00;153306.03;4990845;28;20486;-77
2021/12/28 08:00:52;;;;;;;1.10;0.67;;;;;;;7.63;100.00;153318.94;5000964;28;20704;-77
2021/12/28 08:03:28;;;;;;;1.50;0.80;;;;;;;7.65;100.00;153324.16;5007695;28;20820;-77
2021/12/28 08:06:04;;;;;;;0.77;0.40;;;;;;;7.66;100.00;153326.72;4976016;28;20441;-77
2021/12/28 08:08:40;;;;;;;0.90;0.50;;;;;;;7.75;100.00;153349.97;5023025;28;20551;-77
2021/12/28 08:11:15;;;;;;;0.80;0.50;;;;;;;7.76;100.00;153352.53;5007207;28;20448;-77
2021/12/28 08:13:51;;;;;;;1.13;0.60;;;;;;;7.75;100.00;153349.97;5007603;28;20465;-77
2021/12/28 08:16:27;;;;;;;1.00;0.40;;;;;;;7.72;100.00;153343.53;4975446;28;20442;-77
2021/12/28 08:19:04;;;;;;;1.10;0.60;;;;;;;7.74;100.00;153348.69;4976775;28;20422;-78
2021/12/28 08:21:42;;;;;;;1.00;0.63;;;;;;;7.74;100.00;153347.38;5013006;28;20457;-77
2021/12/28 08:24:17;;;;;;;0.90;0.40;;;;;;;7.74;100.00;153348.69;5010415;28;20441;-77
2021/12/28 08:26:52;;;;;;;1.10;0.50;;;;;;;7.78;100.00;153357.72;4994966;28;20900;-77
2021/12/28 08:29:28;;;;;;;1.43;0.50;;;;;;;7.86;100.00;153378.41;4991876;28;20462;-77
2021/12/28 08:32:04;;;;;;;0.80;0.53;;;;;;;7.78;100.00;153357.72;5011029;28;20823;-77
2021/12/28 08:34:39;;;;;;;2.30;0.40;;;;;;;7.86;100.00;153378.41;5010799;28;20453;-77
2021/12/28 08:37:17;;;;;;;0.63;0.30;;;;;;;7.88;100.00;153384.88;4994905;28;20433;-78
2021/12/28 08:39:52;;;;;;;1.20;0.50;;;;;;;7.91;100.00;153391.31;5010370;28;20446;-77
2021/12/28 08:42:28;;;;;;;2.80;0.40;;;;;;;7.94;100.00;153399.09;4989686;28;20441;-77
2021/12/28 08:45:05;;;;;;;2.03;0.50;;;;;;;7.96;100.00;153404.22;5009369;28;20493;-75
2021/12/28 08:47:41;;;;;;;0.80;0.20;;;;;;;7.97;100.00;153408.09;4989993;28;20489;-75
2021/12/28 08:50:19;;;;;;;0.77;0.40;;;;;;;8.03;100.00;153422.31;5009336;28;20425;-75
2021/12/28 08:52:56;;;;;;;1.73;0.50;;;;;;;8.08;100.00;153435.22;5026149;28;20469;-75
2021/12/28 08:55:32;;;;;;;0.60;0.30;;;;;;;8.08;100.00;153433.94;4994328;28;20504;-75
2021/12/28 08:58:07;;;;;;;0.70;0.40;;;;;;;8.08;100.00;153433.94;5008017;28;20457;-75
2021/12/28 09:00:43;;;;;;;1.10;0.60;;;;;;;8.11;100.00;153443.00;4991026;28;20446;-75
2021/12/28 09:03:18;;;;;;;0.70;0.40;;;;;;;8.09;100.00;153437.81;4977461;28;20869;-76
2021/12/28 09:05:54;;;;;;;1.00;0.40;;;;;;;8.12;100.00;153444.28;5011806;28;20452;-75
2021/12/28 09:08:31;;;;;;;3.90;0.73;;;;;;;8.19;100.00;153463.66;4997758;28;20930;-76
2021/12/28 09:11:06;;;;;;;0.87;0.50;;;;;;;8.19;100.00;153462.38;5027394;28;20453;-75
2021/12/28 09:13:42;;;;;;;1.17;0.40;;;;;;;8.27;100.00;153484.41;4998942;28;20492;-75
2021/12/28 09:16:18;;;;;;;0.70;0.30;;;;;;;8.27;100.00;153484.41;4993120;28;20453;-75
2021/12/28 09:18:53;;;;;;;1.17;0.50;;;;;;;8.35;100.00;153503.78;5008528;28;20875;-75
2021/12/28 09:21:29;;;;;;;0.90;0.40;;;;;;;8.32;100.00;153497.31;4991707;28;20449;-75
2021/12/28 09:24:07;;;;;;;0.93;0.47;;;;;;;8.39;100.00;153514.13;5009269;28;20921;-75
2021/12/28 09:26:42;;;;;;;0.90;0.40;;;;;;;8.40;100.00;153516.69;5008649;28;20461;-75
2021/12/28 09:29:18;;;;;;;0.80;0.40;;;;;;;8.44;100.00;153528.34;4993480;28;20437;-75
2021/12/28 09:31:53;;;;;;;1.13;0.40;;;;;;;8.55;100.00;153556.75;5009099;28;20445;-75
2021/12/28 09:34:29;;;;;;;1.23;0.30;;;;;;;8.61;100.00;153570.97;4977250;28;20500;-75
2021/12/28 09:37:05;;;;;;;0.97;0.47;;;;;;;8.68;100.00;153587.81;4977383;28;20927;-75
2021/12/28 09:39:41;;;;;;;0.70;0.30;;;;;;;8.78;100.00;153613.66;5008102;28;20449;-75
2021/12/28 09:42:18;;;;;;;0.87;0.40;;;;;;;8.77;100.00;153612.34;4992005;28;20445;-75
2021/12/28 09:44:53;;;;;;;1.17;0.83;;;;;;;8.75;100.00;153607.19;4990816;28;20457;-75
2021/12/28 09:47:29;;;;;;;1.27;0.30;;;;;;;8.80;100.00;153620.13;5014444;28;20576;-76
2021/12/28 09:50:06;;;;;;;1.30;0.50;;;;;;;8.82;100.00;153623.97;5023307;28;20461;-75
2021/12/28 09:52:42;;;;;;;0.90;0.60;;;;;;;8.82;100.00;153625.28;4991863;28;20465;-75
2021/12/28 09:55:24;;;;;;;0.70;0.40;;;;;;;8.85;100.00;153633.03;4975612;28;20437;-75
2021/12/28 09:58:00;;;;;;;0.67;0.30;;;;;;;8.87;100.00;153638.22;5002641;28;20441;-75
2021/12/28 10:00:35;;;;;;;0.80;0.37;;;;;;;8.90;100.00;153644.66;4979497;28;20845;-75
2021/12/28 10:03:11;;;;;;;2.40;0.40;;;;;;;8.91;100.00;153647.28;4990616;28;20450;-75
2021/12/28 10:05:47;;;;;;;0.70;0.30;;;;;;;8.93;100.00;153652.44;4992821;28;20520;-76
2021/12/28 10:08:24;;;;;;;0.80;0.50;;;;;;;9.03;100.00;153679.59;5006729;28;20816;-75
2021/12/28 10:11:01;;;;;;;2.30;0.40;;;;;;;9.07;100.00;153688.66;5007138;28;20453;-75
2021/12/28 10:13:36;;;;;;;0.90;0.30;;;;;;;9.09;100.00;153693.81;5007041;28;21222;-75
2021/12/28 10:16:12;;;;;;;0.67;0.27;;;;;;;9.19;100.00;153719.69;4990971;28;20446;-75
2021/12/28 10:18:48;;;;;;;0.60;0.30;;;;;;;9.18;100.00;153717.13;4990195;28;20449;-75
2021/12/28 10:21:26;;;;;;;1.07;0.40;;;;;;;9.22;100.00;153727.44;4984285;28;20441;-75
2021/12/28 10:24:01;;;;;;;0.80;0.40;;;;;;;9.16;100.00;153713.22;4992903;28;20446;-76
2021/12/28 10:26:38;;;;;;;1.40;0.77;;;;;;;9.29;100.00;153745.59;5002497;28;20452;-75
2021/12/28 10:29:31;;;;;;;0.80;0.40;;;;;;;9.29;100.00;153745.59;4991632;28;20449;-75
2021/12/28 10:32:18;;;;;;;0.90;0.40;;;;;;;9.29;100.00;153744.28;5008928;28;20446;-75
2021/12/28 10:34:55;;;;;;;1.27;0.63;;;;;;;9.28;100.00;153741.69;5024643;28;20430;-75
2021/12/28 10:37:33;;;;;;;1.10;0.80;;;;;;;9.29;100.00;153745.59;4997942;28;20435;-75
2021/12/28 10:40:12;;;;;;;0.80;0.50;;;;;;;9.33;100.00;153754.59;5008670;28;20840;-75
2021/12/28 10:42:56;;;;;;;1.00;0.43;;;;;;;9.38;100.00;153767.53;5008271;28;20456;-75
2021/12/28 10:45:38;;;;;;;2.17;0.60;;;;;;;9.50;100.00;153799.91;5017591;28;20512;-75
2021/12/28 10:48:16;;;;;;;1.20;0.50;;;;;;;9.65;100.00;153838.72;4986825;28;20482;-75
2021/12/28 10:50:55;;;;;;;1.20;0.50;;;;;;;9.57;100.00;153816.69;4974929;28;20445;-75
2021/12/28 10:53:37;;;;;;;1.00;0.73;;;;;;;9.61;100.00;153828.34;4972049;28;20474;-75
2021/12/28 10:56:12;;;;;;;1.50;0.80;;;;;;;9.66;100.00;153841.25;4999511;28;20524;-76
2021/12/28 10:58:50;;;;;;;1.40;0.90;;;;;;;9.72;100.00;153855.50;5007104;28;20481;-76
2021/12/28 11:01:28;;;;;;;1.30;0.90;;;;;;;9.69;100.00;153849.03;5007748;28;20860;-76
2021/12/28 11:04:08;;;;;;;1.23;0.60;;;;;;;9.72;100.00;153856.81;4991167;28;20433;-76
2021/12/28 11:06:45;;;;;;;1.13;0.70;;;;;;;9.71;100.00;153854.25;4985017;28;20838;-76
2021/12/28 11:09:22;;;;;;;0.90;0.50;;;;;;;9.74;100.00;153860.72;4973023;28;20862;-76
2021/12/28 11:11:58;;;;;;;1.70;0.50;;;;;;;9.77;100.00;153869.75;5003215;28;20917;-76
2021/12/28 11:14:35;;;;;;;0.83;0.47;;;;;;;9.82;100.00;153882.69;4990740;28;20905;-76
2021/12/28 11:17:11;;;;;;;1.00;0.60;;;;;;;9.82;100.00;153880.13;4988311;28;20480;-76
2021/12/28 11:19:49;;;;;;;1.17;0.90;;;;;;;9.88;100.00;153895.59;4973760;28;20437;-76
2021/12/28 11:22:24;;;;;;;1.73;0.50;;;;;;;9.84;100.00;153886.59;5007138;28;20449;-76
2021/12/28 11:25:00;;;;;;;0.83;0.50;;;;;;;9.85;100.00;153887.88;5007434;28;20500;-76
2021/12/28 11:27:35;;;;;;;1.03;0.53;;;;;;;9.88;100.00;153895.59;4990737;28;20807;-76
2021/12/28 11:30:17;;;;;;;1.13;0.50;;;;;;;9.82;100.00;153881.41;4991125;28;20528;-76
2021/12/28 11:33:04;;;;;;;1.80;0.80;;;;;;;9.85;100.00;153887.88;4971804;28;20977;-76
2021/12/28 11:35:40;;;;;;;1.00;0.50;;;;;;;9.84;100.00;153886.59;4983269;28;20449;-76
2021/12/28 11:38:16;;;;;;;1.40;0.80;;;;;;;9.82;100.00;153880.13;5007341;28;20920;-76
2021/12/28 11:40:51;;;;;;;1.13;0.70;;;;;;;9.85;100.00;153887.88;5006837;28;20476;-76
2021/12/28 11:43:27;;;;;;;3.03;1.00;;;;;;;9.89;100.00;153899.53;5011153;28;20456;-76
2021/12/28 11:46:05;;;;;;;1.37;0.80;;;;;;;9.90;100.00;153900.81;5038578;28;20452;-76
2021/12/28 11:48:42;;;;;;;1.03;0.60;;;;;;;9.92;100.00;153906.00;5011720;28;20472;-76
2021/12/28 11:51:20;;;;;;;1.27;0.80;;;;;;;9.90;100.00;153902.06;4994658;28;20429;-76
2021/12/28 11:53:56;;;;;;;3.47;0.90;;;;;;;9.91;100.00;153903.38;5011094;28;20453;-76
2021/12/28 11:56:34;;;;;;;1.10;0.50;;;;;;;9.98;100.00;153921.53;4994915;28;20445;-76
2021/12/28 11:59:12;;;;;;;0.93;0.50;;;;;;;10.00;100.00;153926.69;4978046;28;20812;-76
2021/12/28 12:01:57;;;;;;;1.30;0.67;;;;;;;10.01;100.00;153930.56;4975237;28;20968;-76
2021/12/28 12:04:58;;;;;;;1.17;0.60;;;;;;;10.05;100.00;153939.63;4997841;28;20907;-76
2021/12/28 12:07:37;;;;;;;1.20;0.73;;;;;;;10.05;100.00;153940.94;5008993;28;20886;-76